Airfield :
LOGIN :

Register | Disclaimer

   EN    FR    IT 

 










Legend :    VFR   Marginal VFR   IFR   Intensive IFR   Very Intensive IFR
Visi :
Ceiling :
>= 8 km
>= 3000ft
5 to 8 km
1000 to 3000 ft
1500m to 5 km
500 to 1000 ft
800 to 1500m
200 to 500 ft
< 800m
< 200 ft
Symbols :   Thunderstorms  Fog  Heavy snow  Heavy precipitations  Wind > 20 kt
SIGMETs :     Misc.  Thunderstorms  Icing  Turbulence  Mountain Waves  Volcanic Ashes






- Airport Elevation : 102 ft
- IATA code : CNG


LFBG - Cognac

CURRENT METAR :
  • 310000Z AUTO 06001KT 4800 0350 R23/0400D BCFG NSC 09/09 Q1023

EXPIRED METARs :
  • 302330Z AUTO 10002KT 4300 BR NSC 09/09 Q1023
  • 302300Z AUTO 08005KT 7000 NSC 10/10 Q1023
  • 302230Z AUTO VRB02KT 6000 NSC 10/10 Q1023
  • 302200Z AUTO 10002KT 9000 NSC 11/11 Q1024
  • 302130Z AUTO 08003KT 9000 NSC 11/11 Q1024

TAF TAF LFBG
Valid from the 30 at 15:00 until the 31 at 15:00 UTC


301400Z 3015/3115 VRB02KT 9999 FEW030
BECMG 3022/3024 0800 FG VV///
BECMG 3109/3111 CAVOK



MET'MAP, your aeronautical weather chart ! - Copyright ORBIFLY December 2007 - Disclaimer

ORBIFLY MET'MAP TEAM :

Programming & Development : Alexandra Zaïnal
Concept & original design : Baudouin d'Aumeries
Assistance for programming : Marc-Olivier Méhu
Technical & hardware support : Manuel Goepfert

Contact : metmap@orbifly.com




SOURCES & CREDITS :

   NOAA